Time;durP1;ratioP1;P1;durP2;ratioP2;P2;SDS_P1;SDS_P2;PMS_P1;PMS_P2;Temp;Humidity;BMP_temperature;BMP_pressure;BME280_temperature;BME280_humidity;BME280_pressure;Samples;Min_cycle;Max_cycle;Signal;HPM_P1;HPM_P2
2021/01/23 00:02:15;;;;;;;20.33;12.03;;;;;;;3.71;86.72;98071.23;1798238;77;25285;-71
2021/01/23 00:04:42;;;;;;;18.07;11.37;;;;;;;3.67;86.89;98062.01;1803952;78;25265;-70
2021/01/23 00:07:09;;;;;;;16.53;10.50;;;;;;;3.66;87.07;98068.62;1804245;77;25716;-70
2021/01/23 00:09:36;;;;;;;16.40;10.53;;;;;;;3.62;87.51;98066.73;1811425;77;25259;-71
2021/01/23 00:12:03;;;;;;;14.57;9.43;;;;;;;3.59;88.19;98064.83;1808981;77;25195;-70
2021/01/23 00:14:30;;;;;;;14.27;9.70;;;;;;;3.56;88.02;98061.97;1788653;78;25302;-70
2021/01/23 00:16:57;;;;;;;17.23;9.87;;;;;;;3.53;88.01;98063.48;1819962;77;25279;-70
2021/01/23 00:19:24;;;;;;;16.13;9.57;;;;;;;3.49;88.12;98062.07;1810890;78;25298;-71
2021/01/23 00:21:52;;;;;;;14.47;9.40;;;;;;;3.48;88.39;98052.60;1785355;79;25690;-71
2021/01/23 00:24:18;;;;;;;16.10;10.57;;;;;;;3.50;88.93;98046.81;1787659;79;25293;-71
2021/01/23 00:26:45;;;;;;;13.53;9.47;;;;;;;3.49;88.78;98038.20;1787714;80;25273;-72
2021/01/23 00:29:13;;;;;;;14.37;9.03;;;;;;;3.53;88.72;98029.22;1787685;80;25687;-71
2021/01/23 00:31:41;;;;;;;15.10;9.07;;;;;;;3.58;88.77;98016.36;1787621;79;25296;-71
2021/01/23 00:34:09;;;;;;;14.27;8.80;;;;;;;3.63;88.88;98022.86;1787616;80;25273;-71
2021/01/23 00:36:35;;;;;;;12.67;8.37;;;;;;;3.68;88.96;98027.25;1785105;79;25194;-71
2021/01/23 00:39:04;;;;;;;13.40;8.57;;;;;;;3.75;89.36;98024.20;1786743;78;25548;-71
2021/01/23 00:41:30;;;;;;;13.20;9.10;;;;;;;3.78;89.38;98010.97;1787058;79;25699;-71
2021/01/23 00:43:59;;;;;;;13.73;8.87;;;;;;;3.81;89.54;98009.44;1787629;80;25190;-71
2021/01/23 00:46:26;;;;;;;11.73;8.17;;;;;;;3.83;89.48;98004.95;1786792;79;25257;-72
2021/01/23 00:48:53;;;;;;;10.30;6.77;;;;;;;3.86;89.87;97996.91;1772113;79;25377;-72
2021/01/23 00:51:20;;;;;;;14.57;9.80;;;;;;;3.88;90.29;97993.72;1784187;79;25246;-72
2021/01/23 00:53:47;;;;;;;16.37;9.57;;;;;;;3.90;91.04;97987.91;1785422;79;25735;-71
2021/01/23 00:56:13;;;;;;;16.50;10.27;;;;;;;3.88;90.72;97977.62;1787002;79;25300;-72
2021/01/23 00:58:41;;;;;;;16.77;10.00;;;;;;;3.85;90.65;97976.56;1785511;79;25305;-72
2021/01/23 01:01:08;;;;;;;16.43;9.90;;;;;;;3.84;90.57;97983.20;1783521;79;25226;-72
2021/01/23 01:03:35;;;;;;;12.77;8.83;;;;;;;3.85;90.52;97988.74;1785353;80;25702;-72
2021/01/23 01:06:04;;;;;;;12.37;7.97;;;;;;;3.86;90.87;97989.11;1786921;79;25732;-72
2021/01/23 01:08:30;;;;;;;11.37;7.33;;;;;;;3.87;90.88;97990.30;1784742;79;25058;-72
2021/01/23 01:10:57;;;;;;;10.97;7.90;;;;;;;3.85;90.99;97987.44;1787046;79;25214;-72
2021/01/23 01:13:23;;;;;;;14.10;8.90;;;;;;;3.83;91.28;97989.34;1786924;79;25306;-72
2021/01/23 01:15:50;;;;;;;13.93;9.67;;;;;;;3.79;91.11;97987.90;1784608;80;25226;-72
2021/01/23 01:18:17;;;;;;;13.90;9.20;;;;;;;3.79;91.16;97997.00;1786959;79;25305;-72
2021/01/23 01:20:44;;;;;;;14.27;9.07;;;;;;;3.76;91.09;97985.56;1786586;78;25293;-72
2021/01/23 01:23:11;;;;;;;11.40;9.33;;;;;;;3.75;91.32;97972.19;1782123;79;25676;-71
2021/01/23 01:25:37;;;;;;;11.33;8.00;;;;;;;3.74;91.75;97962.72;1783995;79;25596;-71
2021/01/23 01:28:04;;;;;;;16.67;9.57;;;;;;;3.77;91.86;97967.24;1785632;80;25285;-72
2021/01/23 01:30:31;;;;;;;16.70;10.47;;;;;;;3.81;92.10;97966.53;1785641;80;25345;-73
2021/01/23 01:32:57;;;;;;;13.27;8.97;;;;;;;3.84;92.22;97966.30;1787077;79;25414;-72
2021/01/23 01:35:24;;;;;;;13.97;9.80;;;;;;;3.86;92.22;97967.82;1785043;80;25283;-72
2021/01/23 01:37:51;;;;;;;15.03;10.47;;;;;;;3.87;92.14;97975.14;1786475;79;25779;-72
2021/01/23 01:40:17;;;;;;;15.87;10.60;;;;;;;3.87;92.03;97977.74;1787010;79;25250;-72
2021/01/23 01:42:44;;;;;;;15.80;9.33;;;;;;;3.88;91.84;97985.91;1784641;80;25750;-73
2021/01/23 01:45:12;;;;;;;13.87;9.77;;;;;;;3.89;91.78;97983.20;1786959;79;25099;-72
2021/01/23 01:47:40;;;;;;;13.93;9.43;;;;;;;3.95;91.98;97990.99;1787024;79;25608;-72
2021/01/23 01:50:08;;;;;;;13.97;9.40;;;;;;;4.01;92.13;97990.53;1786904;80;25202;-73
2021/01/23 01:52:35;;;;;;;12.83;9.23;;;;;;;4.07;92.34;97988.77;1786934;80;25265;-72
2021/01/23 01:55:02;;;;;;;13.73;9.07;;;;;;;4.17;92.25;97988.05;1787068;80;25281;-72
2021/01/23 01:57:29;;;;;;;13.03;8.87;;;;;;;4.22;92.33;97981.55;1784992;79;25187;-72
2021/01/23 01:59:55;;;;;;;13.87;9.60;;;;;;;4.24;92.38;97971.00;1786798;79;25281;-72
2021/01/23 02:02:45;;;;;;;13.03;9.43;;;;;;;4.24;92.40;97962.73;1786915;80;25250;-72
2021/01/23 02:05:38;;;;;;;12.83;8.03;;;;;;;4.24;92.44;97968.39;1786262;79;25202;-71
2021/01/23 02:08:38;;;;;;;13.83;9.30;;;;;;;4.24;92.42;97969.69;1787038;79;25309;-72
2021/01/23 02:11:29;;;;;;;14.97;9.13;;;;;;;4.25;92.33;97968.28;1785478;79;25242;-71
2021/01/23 02:14:00;;;;;;;10.17;7.43;;;;;;;4.25;92.21;97964.38;1786284;80;25388;-72
2021/01/23 02:16:40;;;;;;;12.47;8.37;;;;;;;4.31;92.19;97955.28;1806800;79;26974;-72
2021/01/23 02:19:49;;;;;;;11.57;8.10;;;;;;;4.27;92.10;97958.59;1751313;81;25353;-72
2021/01/23 02:22:30;;;;;;;11.03;8.53;;;;;;;4.29;92.04;97964.98;1709389;84;25737;-73
2021/01/23 02:25:06;;;;;;;12.77;8.67;;;;;;;4.33;91.81;97958.58;1834348;77;27009;-72
2021/01/23 02:28:12;;;;;;;14.37;9.60;;;;;;;4.27;91.76;97948.19;1824972;78;25206;-71
2021/01/23 02:30:43;;;;;;;10.60;7.40;;;;;;;4.26;91.73;97949.13;1814800;78;25730;-71
2021/01/23 02:33:09;;;;;;;11.00;8.60;;;;;;;4.26;91.75;97940.02;1810744;78;25231;-71
2021/01/23 02:35:36;;;;;;;12.23;8.77;;;;;;;4.29;91.71;97932.45;1749942;80;25072;-71
2021/01/23 02:38:03;;;;;;;11.30;8.20;;;;;;;4.35;91.74;97933.25;1771098;80;25716;-71
2021/01/23 02:40:29;;;;;;;11.77;8.20;;;;;;;4.39;91.68;97933.38;1734525;81;25338;-71
2021/01/23 02:42:56;;;;;;;10.80;8.07;;;;;;;4.40;91.65;97925.08;1784788;80;25319;-71
2021/01/23 02:45:23;;;;;;;11.07;7.30;;;;;;;4.41;91.59;97921.06;1755708;81;25260;-71
2021/01/23 02:47:49;;;;;;;10.53;7.90;;;;;;;4.40;91.65;97911.59;1788673;79;25244;-71
2021/01/23 02:50:16;;;;;;;12.43;8.03;;;;;;;4.41;91.67;97918.45;1750784;81;25341;-72
2021/01/23 02:53:03;;;;;;;12.13;9.20;;;;;;;4.41;91.64;97917.16;1720172;80;25443;-71
2021/01/23 02:55:33;;;;;;;10.97;7.33;;;;;;;4.40;91.57;97910.28;1755613;81;25727;-70
2021/01/23 02:58:02;;;;;;;13.77;8.87;;;;;;;4.43;91.67;97904.02;1786253;79;25244;-72
2021/01/23 03:00:31;;;;;;;11.37;7.30;;;;;;;4.41;91.45;97889.82;1740318;81;25407;-72
2021/01/23 03:02:59;;;;;;;11.17;7.47;;;;;;;4.43;91.73;97892.30;1757828;80;25336;-71
2021/01/23 03:05:27;;;;;;;13.87;9.00;;;;;;;4.46;91.79;97889.46;1742979;81;25302;-71
2021/01/23 03:07:54;;;;;;;13.40;8.17;;;;;;;4.44;91.79;97884.38;1757066;81;25244;-72
2021/01/23 03:10:41;;;;;;;12.90;8.93;;;;;;;4.42;91.77;97876.32;1736256;81;25646;-71
2021/01/23 03:13:08;;;;;;;12.17;8.27;;;;;;;4.42;91.79;97883.68;1754978;81;25443;-72
2021/01/23 03:15:35;;;;;;;9.70;7.60;;;;;;;4.40;91.96;97885.55;1743003;81;25768;-71
2021/01/23 03:18:02;;;;;;;11.50;8.20;;;;;;;4.41;91.91;97881.20;1757415;81;25268;-71
2021/01/23 03:20:29;;;;;;;14.77;8.60;;;;;;;4.41;92.00;97879.89;1753871;81;25627;-72
2021/01/23 03:22:57;;;;;;;15.10;8.93;;;;;;;4.41;92.09;97878.59;1752444;81;25266;-72
2021/01/23 03:25:24;;;;;;;10.23;7.43;;;;;;;4.44;92.19;97871.36;1745532;80;25805;-71
2021/01/23 03:27:51;;;;;;;11.53;8.73;;;;;;;4.47;92.35;97862.45;1730276;81;25239;-71
2021/01/23 03:30:20;;;;;;;11.43;8.30;;;;;;;4.47;92.35;97844.23;1730325;81;25346;-72
2021/01/23 03:32:48;;;;;;;12.63;8.17;;;;;;;4.46;92.56;97821.77;1730199;81;25088;-71
2021/01/23 03:35:16;;;;;;;15.10;9.50;;;;;;;4.45;92.60;97819.63;1729959;81;25092;-71
2021/01/23 03:37:43;;;;;;;13.73;9.40;;;;;;;4.43;92.86;97829.83;1729717;81;25081;-72
2021/01/23 03:40:11;;;;;;;14.33;9.50;;;;;;;4.42;92.71;97838.13;1763353;80;25297;-71
2021/01/23 03:42:37;;;;;;;11.40;8.50;;;;;;;4.41;92.68;97835.64;1729824;81;25286;-71
2021/01/23 03:45:06;;;;;;;15.27;9.80;;;;;;;4.43;92.75;97839.76;1729527;81;25626;-71
2021/01/23 03:47:33;;;;;;;12.33;8.80;;;;;;;4.43;92.69;97837.16;1759814;80;25359;-71
2021/01/23 03:50:00;;;;;;;13.63;8.43;;;;;;;4.45;92.69;97833.95;1759998;80;25690;-71
2021/01/23 03:52:27;;;;;;;13.73;9.47;;;;;;;4.47;92.81;97833.82;1759900;80;25178;-71
2021/01/23 03:54:54;;;;;;;12.23;9.07;;;;;;;4.49;92.70;97837.61;1758844;80;25350;-72
2021/01/23 03:57:20;;;;;;;12.37;8.60;;;;;;;4.53;92.73;97840.33;1743096;80;25280;-72
2021/01/23 03:59:47;;;;;;;14.87;9.93;;;;;;;4.57;92.78;97838.63;1775641;79;25211;-72
2021/01/23 04:02:13;;;;;;;14.30;9.37;;;;;;;4.62;92.77;97839.56;1728216;81;25283;-71
2021/01/23 04:04:40;;;;;;;16.77;10.30;;;;;;;4.67;92.84;97841.80;1775735;79;25064;-72
2021/01/23 04:07:07;;;;;;;13.60;10.17;;;;;;;4.69;92.78;97845.09;1759866;80;25705;-72
2021/01/23 04:09:33;;;;;;;14.27;9.83;;;;;;;4.72;92.69;97841.76;1729459;81;25313;-72
2021/01/23 04:12:00;;;;;;;15.63;10.27;;;;;;;4.77;92.68;97839.59;1761902;80;25122;-72
2021/01/23 04:14:26;;;;;;;14.37;10.40;;;;;;;4.79;92.60;97827.75;1759876;80;25269;-72
2021/01/23 04:16:53;;;;;;;12.83;10.17;;;;;;;4.80;92.64;97825.03;1770466;79;25199;-72
2021/01/23 04:19:20;;;;;;;15.23;10.17;;;;;;;4.82;92.65;97819.20;1700565;83;25273;-71
2021/01/23 04:21:46;;;;;;;13.87;9.83;;;;;;;4.82;92.65;97812.69;1760859;80;25262;-72
2021/01/23 04:24:13;;;;;;;13.93;10.70;;;;;;;4.80;92.61;97804.19;1708547;83;25388;-72
2021/01/23 04:26:40;;;;;;;19.57;11.17;;;;;;;4.79;92.67;97797.34;1698578;83;25700;-71
2021/01/23 04:29:07;;;;;;;14.23;10.23;;;;;;;4.80;92.55;97793.77;1727245;81;25186;-71
2021/01/23 04:31:36;;;;;;;16.90;11.20;;;;;;;4.82;92.61;97784.04;1745222;81;25779;-71
2021/01/23 04:34:11;;;;;;;15.23;11.20;;;;;;;4.87;92.61;97762.01;1815368;77;26447;-71
2021/01/23 04:36:38;;;;;;;16.13;11.43;;;;;;;4.83;92.53;97764.87;1785997;79;25747;-71
2021/01/23 04:39:04;;;;;;;14.27;10.43;;;;;;;4.87;92.54;97761.52;1788609;80;25342;-71
2021/01/23 04:41:31;;;;;;;14.57;10.90;;;;;;;4.90;92.52;97754.75;1788459;79;25197;-71
2021/01/23 04:43:58;;;;;;;15.33;10.53;;;;;;;4.93;92.54;97757.59;1778748;80;25254;-72
2021/01/23 04:46:24;;;;;;;14.83;10.13;;;;;;;4.96;92.51;97753.41;1740559;81;25247;-71
2021/01/23 04:48:51;;;;;;;17.77;11.83;;;;;;;5.01;92.55;97747.33;1764997;79;25655;-71
2021/01/23 04:51:18;;;;;;;17.43;10.93;;;;;;;5.07;92.47;97740.78;1774570;80;25138;-71
2021/01/23 04:53:46;;;;;;;17.77;10.67;;;;;;;5.10;92.38;97745.73;1779992;80;25353;-71
2021/01/23 04:56:15;;;;;;;16.27;11.20;;;;;;;5.12;92.28;97747.24;1771078;80;25646;-71
2021/01/23 04:58:42;;;;;;;15.70;11.13;;;;;;;5.12;92.28;97745.94;1757248;80;25255;-72
2021/01/23 05:01:15;;;;;;;18.57;11.53;;;;;;;5.15;92.24;97751.38;1758869;79;25144;-71
2021/01/23 05:03:59;;;;;;;15.73;10.90;;;;;;;5.18;92.11;97738.09;1765049;79;25240;-72
2021/01/23 05:06:27;;;;;;;16.87;9.33;;;;;;;5.20;92.12;97734.39;1778498;80;25127;-71
2021/01/23 05:08:54;;;;;;;17.10;11.40;;;;;;;5.19;91.97;97732.75;1765327;80;25152;-70
2021/01/23 05:11:21;;;;;;;16.97;11.60;;;;;;;5.17;91.90;97726.01;1757392;81;25259;-71
2021/01/23 05:14:09;;;;;;;19.63;11.33;;;;;;;5.18;91.93;97723.27;1757309;80;25211;-71
2021/01/23 05:16:36;;;;;;;16.77;11.10;;;;;;;5.18;91.97;97721.16;1761188;80;25754;-71
2021/01/23 05:19:03;;;;;;;18.30;12.10;;;;;;;5.18;91.89;97709.42;1767261;80;25211;-71
2021/01/23 05:21:32;;;;;;;16.13;11.13;;;;;;;5.22;91.92;97706.08;1736905;81;25267;-71
2021/01/23 05:24:09;;;;;;;21.47;12.77;;;;;;;5.20;91.82;97699.20;1705848;81;25707;-71
2021/01/23 05:26:37;;;;;;;15.37;10.23;;;;;;;5.19;91.84;97691.52;1727160;81;25313;-71
2021/01/23 05:29:13;;;;;;;17.03;11.60;;;;;;;5.20;91.88;97689.27;1727246;83;25233;-72
2021/01/23 05:31:41;;;;;;;17.77;11.80;;;;;;;5.18;91.85;97675.06;1667412;85;25381;-71
2021/01/23 05:34:31;;;;;;;16.53;11.07;;;;;;;5.17;91.88;97677.80;1655667;84;25800;-71
2021/01/23 05:36:58;;;;;;;19.67;12.17;;;;;;;5.18;91.95;97672.45;1651333;85;25786;-71
2021/01/23 05:39:47;;;;;;;16.47;11.60;;;;;;;5.15;91.82;97667.50;1651433;85;25796;-72
2021/01/23 05:42:15;;;;;;;15.30;10.97;;;;;;;5.12;91.86;97666.95;1656093;85;25355;-71
2021/01/23 05:44:41;;;;;;;18.23;11.77;;;;;;;5.11;91.93;97666.59;1661249;85;25252;-71
2021/01/23 05:47:27;;;;;;;18.67;12.30;;;;;;;5.09;91.89;97666.72;1650952;86;25667;-71
2021/01/23 05:49:54;;;;;;;18.10;13.10;;;;;;;5.10;91.96;97662.36;1650955;85;25741;-72
2021/01/23 05:52:21;;;;;;;16.43;12.23;;;;;;;5.09;91.93;97654.99;1650873;85;25208;-71
2021/01/23 05:54:48;;;;;;;19.23;12.57;;;;;;;5.11;91.95;97649.20;1650972;85;25233;-71
2021/01/23 05:57:15;;;;;;;19.63;12.43;;;;;;;5.13;92.02;97651.67;1650841;87;25808;-71
2021/01/23 05:59:42;;;;;;;20.60;12.50;;;;;;;5.14;92.02;97644.18;1650931;85;25276;-71
2021/01/23 06:02:10;;;;;;;18.57;12.60;;;;;;;5.16;92.12;97643.10;1659242;84;25252;-71
2021/01/23 06:04:42;;;;;;;17.07;12.67;;;;;;;5.19;92.13;97642.84;1651033;87;25201;-71
2021/01/23 06:07:10;;;;;;;20.30;12.07;;;;;;;5.24;92.22;97649.42;1631590;85;25733;-72
2021/01/23 06:09:39;;;;;;;17.50;12.07;;;;;;;5.29;92.08;97640.72;1612649;87;25237;-71
2021/01/23 06:12:36;;;;;;;19.33;11.70;;;;;;;5.37;92.15;97632.56;1878702;75;26860;-71
2021/01/23 06:15:33;;;;;;;17.03;11.43;;;;;;;5.36;92.15;97632.23;1821780;78;25279;-72
2021/01/23 06:18:00;;;;;;;20.77;12.73;;;;;;;5.35;92.29;97631.88;1844552;77;25320;-72
2021/01/23 06:20:50;;;;;;;17.43;12.33;;;;;;;5.38;92.03;97620.38;1836127;76;25474;-71
2021/01/23 06:23:17;;;;;;;18.43;12.03;;;;;;;5.38;92.05;97624.28;1822198;78;25673;-71
2021/01/23 06:25:56;;;;;;;19.40;12.37;;;;;;;5.39;92.09;97614.17;1826669;78;25219;-72
2021/01/23 06:28:31;;;;;;;17.87;12.20;;;;;;;5.42;91.96;97612.61;1826561;78;25236;-72
2021/01/23 06:30:58;;;;;;;21.10;12.77;;;;;;;5.44;92.07;97609.38;1825043;78;25275;-71
2021/01/23 06:33:30;;;;;;;18.50;12.67;;;;;;;5.48;92.02;97603.41;1794567;78;25209;-71
2021/01/23 06:36:14;;;;;;;17.73;12.03;;;;;;;5.49;91.92;97604.58;1826315;78;25360;-71
2021/01/23 06:39:03;;;;;;;19.63;12.30;;;;;;;5.51;92.00;97609.20;1813015;78;25215;-71
2021/01/23 06:41:37;;;;;;;22.00;13.93;;;;;;;5.49;91.84;97603.27;1826256;78;25318;-72
2021/01/23 06:44:18;;;;;;;18.97;12.03;;;;;;;5.49;91.78;97607.67;1826572;78;25270;-72
2021/01/23 06:46:54;;;;;;;18.50;13.50;;;;;;;5.50;91.82;97601.02;1825210;78;25216;-72
2021/01/23 06:49:21;;;;;;;19.50;13.43;;;;;;;5.49;91.86;97603.27;1826243;78;25204;-72
2021/01/23 06:51:48;;;;;;;21.13;14.00;;;;;;;5.51;91.84;97597.92;1826447;78;25693;-72
2021/01/23 06:54:20;;;;;;;22.10;14.73;;;;;;;5.51;91.84;97597.47;1826166;78;25204;-72
2021/01/23 06:56:52;;;;;;;24.23;16.27;;;;;;;5.54;91.86;97595.86;1813103;78;25456;-72
2021/01/23 06:59:33;;;;;;;26.67;16.47;;;;;;;5.60;91.85;97603.64;1794177;78;25271;-72
2021/01/23 07:02:09;;;;;;;22.27;15.27;;;;;;;5.63;91.83;97588.17;1826434;78;25314;-72
2021/01/23 07:04:46;;;;;;;28.50;16.43;;;;;;;5.65;91.83;97588.40;1826678;78;25310;-72
2021/01/23 07:07:13;;;;;;;20.10;13.57;;;;;;;5.71;91.75;97590.92;1826480;78;25686;-71
2021/01/23 07:09:51;;;;;;;22.60;13.73;;;;;;;5.75;91.66;97588.39;1826214;78;25410;-72
2021/01/23 07:12:42;;;;;;;18.47;11.47;;;;;;;5.80;91.68;97580.98;1781344;80;25225;-72
2021/01/23 07:15:13;;;;;;;17.70;11.97;;;;;;;5.83;91.59;97572.88;1776842;80;25127;-72
2021/01/23 07:17:45;;;;;;;18.27;12.27;;;;;;;5.87;91.58;97572.11;1777045;80;25752;-71
2021/01/23 07:20:20;;;;;;;17.13;11.30;;;;;;;5.95;91.56;97571.75;1809226;78;27510;-72
2021/01/23 07:22:46;;;;;;;16.17;10.40;;;;;;;5.94;91.53;97566.66;1775410;80;25217;-72
2021/01/23 07:25:17;;;;;;;17.87;9.83;;;;;;;5.99;91.41;97569.70;1761354;81;25758;-71
2021/01/23 07:27:45;;;;;;;17.70;9.53;;;;;;;6.03;91.47;97567.63;1789023;79;25253;-72
2021/01/23 07:30:15;;;;;;;16.23;9.40;;;;;;;6.08;91.39;97564.12;1760576;80;25690;-73
2021/01/23 07:32:45;;;;;;;15.80;8.43;;;;;;;6.13;91.43;97565.81;1789105;79;25723;-73
2021/01/23 07:35:15;;;;;;;14.43;7.80;;;;;;;6.20;91.55;97559.09;1743046;80;25804;-73
2021/01/23 07:37:51;;;;;;;13.87;8.10;;;;;;;6.28;91.54;97551.38;1759467;81;25335;-72
2021/01/23 07:40:28;;;;;;;11.17;7.17;;;;;;;6.40;91.59;97548.56;1780508;79;25241;-72
2021/01/23 07:43:04;;;;;;;12.57;6.90;;;;;;;6.51;91.50;97553.60;1776769;79;25719;-72
2021/01/23 07:45:32;;;;;;;12.77;6.70;;;;;;;6.65;91.34;97548.38;1789161;79;25205;-72
2021/01/23 07:48:04;;;;;;;12.17;6.70;;;;;;;6.73;91.22;97551.09;1789023;80;25604;-72
2021/01/23 07:50:39;;;;;;;20.40;10.70;;;;;;;6.88;90.89;97547.50;1758014;80;25347;-73
2021/01/23 07:53:18;;;;;;;19.53;10.03;;;;;;;7.01;90.73;97555.00;1773813;80;25720;-71
2021/01/23 07:55:45;;;;;;;15.73;9.00;;;;;;;7.14;90.57;97546.77;1787383;79;25749;-72
2021/01/23 07:58:12;;;;;;;18.20;9.93;;;;;;;7.29;90.15;97540.55;1758002;80;25825;-72
2021/01/23 08:00:39;;;;;;;13.17;6.97;;;;;;;7.40;90.16;97539.02;1754547;80;25292;-72
2021/01/23 08:03:06;;;;;;;13.70;8.40;;;;;;;7.52;89.74;97544.34;1751280;81;25161;-72
2021/01/23 08:08:35;;;;;;;11.27;6.53;;;;;;;7.85;89.04;97530.71;1829976;76;26498;-73
2021/01/23 08:11:05;;;;;;;11.73;6.50;;;;;;;7.87;88.78;97537.91;1820254;78;25292;-71
2021/01/23 08:13:34;;;;;;;10.63;6.60;;;;;;;7.96;88.46;97536.52;1819998;77;25693;-71
2021/01/23 08:16:14;;;;;;;12.60;6.67;;;;;;;8.01;87.61;97519.51;1807448;78;25597;-71
2021/01/23 08:18:43;;;;;;;10.20;6.07;;;;;;;8.09;88.23;97531.34;1790716;78;25194;-71
2021/01/23 08:21:19;;;;;;;10.37;6.03;;;;;;;8.22;87.67;97517.34;1811765;78;27494;-72
2021/01/23 08:23:46;;;;;;;10.83;6.20;;;;;;;8.24;87.54;97514.57;1797077;79;25297;-72
2021/01/23 08:26:13;;;;;;;9.17;6.23;;;;;;;8.30;87.30;97519.20;1765257;79;25650;-72
2021/01/23 08:28:44;;;;;;;11.20;7.13;;;;;;;8.38;86.49;97516.61;1765367;79;26379;-72
2021/01/23 08:31:24;;;;;;;9.80;6.67;;;;;;;8.43;86.80;97516.99;1797532;79;26399;-72
2021/01/23 08:33:56;;;;;;;11.50;6.13;;;;;;;8.48;86.64;97516.50;1797777;79;25631;-72
2021/01/23 08:36:29;;;;;;;12.10;6.60;;;;;;;8.55;86.47;97507.05;1797552;79;26256;-72
2021/01/23 08:39:04;;;;;;;11.17;6.57;;;;;;;8.65;86.10;97504.30;1797428;79;26295;-71
2021/01/23 08:41:33;;;;;;;10.57;6.47;;;;;;;8.74;85.70;97498.09;1792377;79;25319;-71
2021/01/23 08:44:00;;;;;;;12.50;6.83;;;;;;;8.78;85.11;97499.44;1797838;79;26228;-72
2021/01/23 08:46:28;;;;;;;10.17;6.00;;;;;;;8.82;84.89;97494.19;1797853;79;26160;-72
2021/01/23 08:48:56;;;;;;;31.83;21.37;;;;;;;8.86;84.04;97495.49;1797612;79;25173;-73
2021/01/23 08:51:24;;;;;;;11.47;7.77;;;;;;;8.86;84.63;97491.56;1797580;79;25695;-72
2021/01/23 08:53:52;;;;;;;12.07;6.70;;;;;;;8.97;83.64;97487.02;1797298;79;25198;-73
2021/01/23 08:56:18;;;;;;;12.43;7.23;;;;;;;8.94;84.28;97488.65;1764379;79;25347;-73
2021/01/23 08:58:47;;;;;;;9.27;5.90;;;;;;;8.95;84.24;97491.11;1764459;79;26228;-73
2021/01/23 09:01:15;;;;;;;10.57;6.90;;;;;;;8.94;83.99;97493.39;1797404;79;25332;-73
2021/01/23 09:03:44;;;;;;;14.80;7.20;;;;;;;8.93;83.92;97493.55;1768265;79;26764;-73
2021/01/23 09:08:52;;;;;;;13.30;8.97;;;;;;;8.90;83.70;97485.03;1887105;75;28036;-71
2021/01/23 09:11:18;;;;;;;13.33;7.37;;;;;;;8.86;83.76;97489.44;1863733;76;25172;-73
2021/01/23 09:13:45;;;;;;;13.77;10.37;;;;;;;8.84;83.74;97486.16;1792995;80;26356;-72
2021/01/23 09:16:13;;;;;;;11.17;7.57;;;;;;;8.84;83.77;97484.36;1825778;78;26335;-72
2021/01/23 09:18:47;;;;;;;8.00;5.87;;;;;;;8.86;83.74;97485.01;1796437;78;26303;-73
2021/01/23 09:21:15;;;;;;;9.07;6.00;;;;;;;8.90;83.79;97481.60;1757323;80;25710;-73
2021/01/23 09:23:44;;;;;;;10.10;6.20;;;;;;;9.01;83.37;97483.08;1793453;79;26300;-73
2021/01/23 09:26:11;;;;;;;10.87;6.83;;;;;;;9.02;83.35;97487.35;1793269;79;25236;-73
2021/01/23 09:28:38;;;;;;;10.43;6.57;;;;;;;9.06;82.97;97485.53;1793258;79;26765;-73
2021/01/23 09:31:05;;;;;;;8.20;5.80;;;;;;;9.07;82.65;97489.00;1793272;79;25264;-73
2021/01/23 09:33:33;;;;;;;10.10;5.63;;;;;;;9.10;82.95;97480.81;1792857;79;25304;-74
2021/01/23 09:36:02;;;;;;;9.43;5.70;;;;;;;9.14;82.66;97482.62;1768845;79;25213;-72
2021/01/23 09:38:29;;;;;;;9.63;5.37;;;;;;;9.13;82.50;97475.22;1758120;80;26322;-72
2021/01/23 09:40:56;;;;;;;7.97;5.40;;;;;;;9.14;82.94;97476.06;1775670;79;26416;-73
2021/01/23 09:43:23;;;;;;;9.93;5.97;;;;;;;9.16;83.01;97473.59;1761949;81;25334;-73
2021/01/23 09:45:50;;;;;;;10.00;6.80;;;;;;;9.20;83.01;97476.70;1780672;78;25209;-73
2021/01/23 09:48:19;;;;;;;7.60;5.47;;;;;;;9.24;82.84;97476.72;1762043;81;25617;-73
2021/01/23 09:50:47;;;;;;;7.60;5.90;;;;;;;9.30;82.69;97482.63;1732948;78;26748;-72
2021/01/23 09:53:14;;;;;;;11.17;5.90;;;;;;;9.39;82.40;97471.64;1779637;79;26246;-71
2021/01/23 09:55:42;;;;;;;8.70;4.70;;;;;;;9.46;82.14;97472.61;1767664;78;25346;-73
2021/01/23 09:58:11;;;;;;;11.80;6.23;;;;;;;9.53;81.98;97472.27;1775087;80;25298;-73
2021/01/23 10:00:40;;;;;;;8.27;4.57;;;;;;;9.60;81.92;97468.02;1762025;81;25760;-72
2021/01/23 10:03:08;;;;;;;7.53;4.37;;;;;;;9.68;81.99;97472.42;1761854;81;25374;-71
2021/01/23 10:05:35;;;;;;;7.13;4.73;;;;;;;9.78;81.59;97471.75;1761796;81;25144;-73
2021/01/23 10:08:04;;;;;;;9.87;5.37;;;;;;;9.88;80.77;97458.44;1717237;81;25344;-72
2021/01/23 10:10:31;;;;;;;16.60;7.87;;;;;;;10.00;79.65;97464.16;1732045;81;25290;-72
2021/01/23 10:12:58;;;;;;;11.47;6.50;;;;;;;9.98;79.99;97458.26;1708328;82;25373;-72
2021/01/23 10:15:25;;;;;;;11.90;6.53;;;;;;;10.07;79.07;97462.52;1712947;80;25350;-69
2021/01/23 10:17:51;;;;;;;13.83;6.87;;;;;;;10.18;78.22;97462.63;1722179;83;25321;-70
2021/01/23 10:20:18;;;;;;;18.90;9.47;;;;;;;10.25;77.80;97453.58;1721680;83;25148;-71
2021/01/23 10:22:45;;;;;;;17.57;9.90;;;;;;;10.30;78.08;97446.81;1721630;83;25646;-71
2021/01/23 10:25:12;;;;;;;13.20;7.93;;;;;;;10.40;77.28;97450.08;1721728;83;25246;-71
2021/01/23 10:27:39;;;;;;;14.27;7.87;;;;;;;10.52;76.65;97452.33;1727237;83;25206;-71
2021/01/23 10:30:07;;;;;;;16.03;9.17;;;;;;;10.51;76.45;97449.40;1721186;83;25726;-71
2021/01/23 10:32:34;;;;;;;20.53;11.33;;;;;;;10.50;76.96;97453.81;1721591;83;25274;-71
2021/01/23 10:35:01;;;;;;;10.87;6.30;;;;;;;10.52;77.32;97452.33;1702953;83;25679;-72
2021/01/23 10:37:28;;;;;;;8.47;4.77;;;;;;;10.68;76.29;97456.19;1721813;83;25286;-72
2021/01/23 10:39:54;;;;;;;6.80;4.10;;;;;;;10.75;75.99;97456.32;1721767;83;25242;-72
2021/01/23 10:42:22;;;;;;;4.73;3.80;;;;;;;10.84;74.91;97447.87;1721780;83;25250;-71
2021/01/23 10:44:49;;;;;;;4.53;3.20;;;;;;;10.91;74.87;97452.28;1721281;83;25341;-71
2021/01/23 10:47:18;;;;;;;5.90;4.03;;;;;;;10.99;73.56;97450.08;1721618;83;25440;-73
2021/01/23 10:49:45;;;;;;;5.47;3.53;;;;;;;11.07;73.27;97451.84;1721382;83;25151;-70
2021/01/23 10:52:12;;;;;;;4.57;3.17;;;;;;;11.09;73.56;97440.64;1721146;83;25178;-71
2021/01/23 10:54:39;;;;;;;7.70;4.33;;;;;;;11.18;72.91;97442.70;1721573;83;25790;-71
2021/01/23 10:57:06;;;;;;;6.10;4.40;;;;;;;11.24;71.93;97455.16;1702855;83;25340;-71
2021/01/23 10:59:34;;;;;;;21.50;9.90;;;;;;;11.23;72.12;97445.14;1721123;83;25096;-71
2021/01/23 11:02:01;;;;;;;9.73;4.90;;;;;;;11.27;72.12;97429.81;1721679;83;25206;-72
2021/01/23 11:04:28;;;;;;;9.87;5.30;;;;;;;11.35;71.66;97450.00;1721356;83;25230;-71
2021/01/23 11:06:54;;;;;;;12.47;7.43;;;;;;;11.36;70.97;97445.03;1721673;83;25668;-72
2021/01/23 11:09:21;;;;;;;13.10;8.30;;;;;;;11.35;71.16;97438.96;1721100;83;25321;-71
2021/01/23 11:11:48;;;;;;;14.73;9.27;;;;;;;11.42;70.49;97450.91;1721643;83;25541;-71
2021/01/23 11:14:15;;;;;;;9.43;6.63;;;;;;;11.33;70.37;97440.96;1721759;83;25376;-71
2021/01/23 11:16:42;;;;;;;14.63;9.47;;;;;;;11.35;69.96;97431.06;1721222;83;25742;-71
2021/01/23 11:19:10;;;;;;;9.73;5.63;;;;;;;11.29;70.11;97439.16;1721791;83;25771;-71
2021/01/23 11:21:37;;;;;;;9.50;5.90;;;;;;;11.19;70.12;97439.09;1721921;83;25310;-72
2021/01/23 11:24:05;;;;;;;7.90;6.60;;;;;;;11.05;69.78;97428.84;1721410;83;25723;-72
2021/01/23 11:26:31;;;;;;;11.47;5.87;;;;;;;10.87;70.18;97423.87;1725072;83;25239;-71
2021/01/23 11:28:58;;;;;;;7.40;4.83;;;;;;;10.79;70.50;97417.34;1725011;83;25286;-71
2021/01/23 11:31:25;;;;;;;8.37;5.50;;;;;;;10.78;70.50;97424.42;1724334;83;25254;-71
2021/01/23 11:33:52;;;;;;;12.83;8.47;;;;;;;10.76;70.55;97443.51;1724987;83;25720;-72
2021/01/23 11:36:19;;;;;;;8.30;6.67;;;;;;;10.66;71.07;97441.57;1724990;83;25800;-71
2021/01/23 11:38:46;;;;;;;6.73;4.70;;;;;;;10.62;71.17;97450.30;1725027;83;25075;-71
2021/01/23 11:41:13;;;;;;;6.53;4.20;;;;;;;10.61;71.19;97458.36;1725080;83;25285;-72
2021/01/23 11:43:40;;;;;;;7.90;5.53;;;;;;;10.46;71.53;97464.86;1724803;83;25285;-71
2021/01/23 11:46:07;;;;;;;17.60;10.47;;;;;;;10.46;71.14;97451.22;1724992;83;25712;-71
2021/01/23 11:48:34;;;;;;;25.73;18.57;;;;;;;10.39;71.07;97451.59;1724621;83;25239;-71
2021/01/23 11:51:00;;;;;;;23.93;17.10;;;;;;;10.41;70.82;97456.17;1713523;83;25353;-71